Time;durP1;ratioP1;P1;durP2;ratioP2;P2;SDS_P1;SDS_P2;PMS_P1;PMS_P2;Temp;Humidity;BMP_temperature;BMP_pressure;BME280_temperature;BME280_humidity;BME280_pressure;Samples;Min_cycle;Max_cycle;Signal;HPM_P1;HPM_P2
2022/11/18 00:01:20;;;;;;;30.13;21.55;;;231.20;2252.80;;;;;;5151368;27;20074;-77
2022/11/18 00:03:46;;;;;;;29.23;22.15;;;231.20;1868.80;;;;;;5151585;27;20023;-70
2022/11/18 00:06:15;;;;;;;36.22;25.08;;;231.10;2252.80;;;;;;5151150;27;20554;-70
2022/11/18 00:08:41;;;;;;;30.45;22.90;;;231.20;2252.80;;;;;;5151158;27;20539;-79
2022/11/18 00:14:17;;;;;;;28.73;20.15;;;231.20;2176.00;;;;;;5151673;27;20034;-76
2022/11/18 00:16:48;;;;;;;28.00;18.73;;;231.20;2099.20;;;;;;5151797;27;20073;-72
2022/11/18 00:19:14;;;;;;;29.10;18.35;;;231.20;1894.40;;;;;;5151674;27;20018;-72
2022/11/18 00:21:40;;;;;;;30.17;20.63;;;231.30;2252.80;;;;;;5151236;27;20375;-73
2022/11/18 00:24:06;;;;;;;35.03;23.33;;;231.30;2252.80;;;;;;5151337;27;20030;-72
2022/11/18 00:26:32;;;;;;;31.75;22.33;;;231.20;2252.80;;;;;;5151023;27;20558;-72
2022/11/18 00:28:58;;;;;;;30.55;21.30;;;231.20;2252.80;;;;;;5151541;27;20075;-71
2022/11/18 00:31:24;;;;;;;33.97;21.73;;;231.20;2252.80;;;;;;5151233;27;20491;-72
2022/11/18 00:33:49;;;;;;;21.00;13.55;;;231.20;2252.80;;;;;;5151223;27;20027;-73
2022/11/18 00:36:15;;;;;;;22.27;16.02;;;231.10;2252.80;;;;;;5151476;27;20027;-72
2022/11/18 00:38:41;;;;;;;24.00;15.98;;;231.20;2252.80;;;;;;5151009;27;20054;-72
2022/11/18 00:41:08;;;;;;;23.15;15.50;;;231.10;2252.80;;;;;;5151441;27;20026;-72
2022/11/18 00:43:35;;;;;;;18.83;11.88;;;231.10;2252.80;;;;;;5152432;27;20039;-76
2022/11/18 00:46:02;;;;;;;20.90;12.88;;;256.00;2252.80;;;;;;5154943;27;20019;-73
2022/11/18 00:48:28;;;;;;;23.75;17.05;;;231.30;2150.40;;;;;;5155082;27;20026;-79
2022/11/18 00:50:57;;;;;;;25.90;16.00;;;231.30;2124.80;;;;;;5154931;27;20131;-79
2022/11/18 00:53:25;;;;;;;23.05;16.77;;;256.00;2252.80;;;;;;5154889;27;20098;-80
2022/11/18 00:55:52;;;;;;;23.58;16.30;;;256.10;2252.80;;;;;;5154900;27;20395;-78
2022/11/18 00:58:18;;;;;;;19.13;13.95;;;231.30;2252.80;;;;;;5155001;27;20029;-78
2022/11/18 01:00:47;;;;;;;21.92;11.68;;;231.30;2252.80;;;;;;5154822;27;20484;-77
2022/11/18 01:03:13;;;;;;;17.17;11.60;;;256.00;2252.80;;;;;;5138394;27;20023;-80
2022/11/18 01:05:39;;;;;;;17.80;11.48;;;256.00;2252.80;;;;;;5134398;27;20982;-83
2022/11/18 01:08:07;;;;;;;18.30;12.02;;;256.00;2073.60;;;;;;5134003;27;20023;-81
2022/11/18 01:10:34;;;;;;;15.75;10.80;;;256.10;2150.40;;;;;;5133881;27;20029;-83
2022/11/18 01:15:52;;;;;;;31.40;24.30;;;256.40;2252.80;;;;;;5133776;27;20026;-72
2022/11/18 01:18:21;;;;;;;12.30;9.80;;;256.50;2252.80;;;;;;5133825;27;20067;-79
2022/11/18 01:20:47;;;;;;;14.40;9.57;;;256.50;2252.80;;;;;;5134000;27;20019;-79
2022/11/18 01:23:14;;;;;;;14.68;9.73;;;256.50;2252.80;;;;;;5133446;27;20023;-79
2022/11/18 01:25:42;;;;;;;10.45;8.00;;;256.50;2252.80;;;;;;5133249;27;20491;-75
2022/11/18 01:28:08;;;;;;;13.05;8.00;;;256.60;2252.80;;;;;;5133683;27;20388;-80
2022/11/18 01:30:36;;;;;;;21.83;10.88;;;256.50;2252.80;;;;;;5133405;27;20462;-79
2022/11/18 01:33:03;;;;;;;17.40;9.85;;;256.40;2252.80;;;;;;5133372;27;20073;-77
2022/11/18 01:35:39;;;;;;;13.07;8.75;;;256.40;2252.80;;;;;;5133564;27;20491;-78
2022/11/18 01:38:06;;;;;;;14.63;9.07;;;256.30;2252.80;;;;;;5133258;27;20023;-79
2022/11/18 01:40:33;;;;;;;13.25;8.90;;;256.50;2252.80;;;;;;5133157;27;20468;-79
2022/11/18 01:42:59;;;;;;;13.30;8.65;;;256.50;2252.80;;;;;;5133412;27;20138;-80
2022/11/18 01:45:37;;;;;;;8.93;6.15;;;256.60;2252.80;;;;;;5133320;27;20531;-80
2022/11/18 01:48:09;;;;;;;11.52;6.35;;;256.80;2252.80;;;;;;5133175;27;20048;-77
2022/11/18 01:50:42;;;;;;;12.43;7.97;;;256.70;2252.80;;;;;;5133257;27;20031;-79
2022/11/18 01:53:13;;;;;;;9.18;6.18;;;256.90;2252.80;;;;;;5132977;27;20096;-74
2022/11/18 01:55:45;;;;;;;11.02;7.53;;;256.80;2252.80;;;;;;5132487;27;20035;-72
2022/11/18 01:58:16;;;;;;;12.05;7.45;;;256.90;2252.80;;;;;;5133067;27;20023;-73
2022/11/18 02:00:42;;;;;;;9.65;7.20;;;256.90;2252.80;;;;;;5114023;27;20035;-75
2022/11/18 02:03:08;;;;;;;11.02;7.90;;;256.90;2252.80;;;;;;5132856;27;20125;-73
2022/11/18 02:05:35;;;;;;;102.68;59.70;;;281.60;2278.40;;;;;;5132646;27;20031;-74
2022/11/18 02:08:05;;;;;;;36.85;20.77;;;281.60;2278.40;;;;;;5132645;27;20070;-73
2022/11/18 02:10:31;;;;;;;33.67;21.02;;;256.90;2252.80;;;;;;5132664;27;20023;-73
2022/11/18 02:12:57;;;;;;;20.70;14.13;;;256.90;2252.80;;;;;;5132907;27;20470;-73
2022/11/18 02:15:49;;;;;;;21.92;15.13;;;256.80;2252.80;;;;;;5132359;27;20030;-72
2022/11/18 02:18:21;;;;;;;36.00;22.17;;;256.90;2252.80;;;;;;5132611;27;20030;-74
2022/11/18 02:20:50;;;;;;;22.40;15.10;;;256.90;2252.80;;;;;;5132592;27;20047;-73
2022/11/18 02:23:50;;;;;;;55.70;31.05;;;281.60;2278.40;;;;;;5132350;27;20102;-73
2022/11/18 02:26:53;;;;;;;42.60;21.45;;;256.90;2252.80;;;;;;5132333;27;20027;-71
2022/11/18 02:29:35;;;;;;;11.02;7.72;;;256.80;2252.80;;;;;;5132180;27;20476;-72
2022/11/18 02:32:07;;;;;;;11.27;7.03;;;256.80;2252.80;;;;;;5132312;27;20468;-79
2022/11/18 02:34:52;;;;;;;17.92;9.65;;;256.90;2252.80;;;;;;5132155;27;20019;-73
2022/11/18 02:37:29;;;;;;;17.67;12.02;;;256.90;2252.80;;;;;;5132268;27;20106;-78
2022/11/18 02:40:07;;;;;;;9.23;6.47;;;256.90;2252.80;;;;;;5131837;27;20023;-71
2022/11/18 02:42:36;;;;;;;11.00;6.20;;;256.90;2252.80;;;;;;5131975;27;20069;-73
2022/11/18 02:45:11;;;;;;;19.95;7.40;;;256.90;2252.80;;;;;;5131864;27;20023;-78
2022/11/18 02:47:39;;;;;;;28.48;21.02;;;281.70;2278.40;;;;;;5132202;27;20380;-75
2022/11/18 02:50:09;;;;;;;26.27;19.48;;;256.50;2252.80;;;;;;5131842;27;20023;-71
2022/11/18 02:52:37;;;;;;;22.95;17.25;;;256.10;2252.80;;;;;;5131925;27;20418;-73
2022/11/18 02:55:07;;;;;;;27.17;19.17;;;256.00;2252.80;;;;;;5131796;27;20024;-78
2022/11/18 02:57:35;;;;;;;27.25;18.75;;;256.10;2252.80;;;;;;5131617;27;20055;-72
2022/11/18 03:00:01;;;;;;;33.08;20.50;;;256.20;2252.80;;;;;;5131768;27;20023;-73
2022/11/18 03:02:26;;;;;;;25.80;17.60;;;256.30;2252.80;;;;;;5132105;27;20076;-71
2022/11/18 03:04:56;;;;;;;25.25;17.73;;;256.40;2252.80;;;;;;5112823;27;20023;-75
2022/11/18 03:07:29;;;;;;;27.45;18.02;;;256.30;2252.80;;;;;;5130629;27;20069;-70
2022/11/18 03:09:56;;;;;;;19.38;14.15;;;256.30;2252.80;;;;;;5131545;27;20577;-70
2022/11/18 03:12:37;;;;;;;31.10;19.65;;;256.40;2252.80;;;;;;5131385;27;20472;-70
2022/11/18 03:15:34;;;;;;;35.17;22.60;;;256.40;2252.80;;;;;;5131427;27;20020;-70
2022/11/18 03:18:21;;;;;;;34.85;20.63;;;256.50;2252.80;;;;;;5126495;27;20084;-70
2022/11/18 03:21:01;;;;;;;13.60;10.35;;;256.50;2252.80;;;;;;5131315;27;20023;-74
2022/11/18 03:23:35;;;;;;;51.78;23.98;;;256.50;2252.80;;;;;;5132267;27;20027;-73
2022/11/18 03:26:00;;;;;;;;;;;256.50;2252.80;;;;;;5131546;27;20037;-72
2022/11/18 03:28:39;;;;;;;14.88;8.90;;;256.50;2252.80;;;;;;5131319;27;20330;-72
2022/11/18 03:31:13;;;;;;;12.27;7.57;;;256.40;2252.80;;;;;;5131264;27;20019;-73
2022/11/18 03:33:44;;;;;;;12.43;8.45;;;256.40;2252.80;;;;;;5131331;27;20015;-74
2022/11/18 03:36:12;;;;;;;17.42;10.18;;;256.30;2252.80;;;;;;5130992;27;20030;-70
2022/11/18 03:38:44;;;;;;;13.63;8.30;;;256.30;2252.80;;;;;;5130983;27;20476;-74
2022/11/18 03:41:12;;;;;;;22.58;15.15;;;256.40;2252.80;;;;;;5131095;27;20031;-73
2022/11/18 03:43:43;;;;;;;18.55;12.82;;;256.20;2252.80;;;;;;5130964;27;20047;-73
2022/11/18 03:46:18;;;;;;;19.55;13.27;;;256.20;2252.80;;;;;;5131143;27;20797;-75
2022/11/18 03:48:55;;;;;;;18.98;11.95;;;256.10;2252.80;;;;;;5130954;28;20068;-72
2022/11/18 03:51:36;;;;;;;20.98;15.50;;;256.10;2252.80;;;;;;5130756;28;20916;-75
2022/11/18 03:54:09;;;;;;;34.70;20.05;;;256.10;2252.80;;;;;;5130724;28;20012;-73
2022/11/18 03:56:38;;;;;;;47.92;33.78;;;231.30;2252.80;;;;;;5131166;28;20028;-80
2022/11/18 03:59:32;;;;;;;49.55;32.60;;;231.10;2252.80;;;;;;5130813;28;20028;-76
2022/11/18 04:02:09;;;;;;;62.22;42.25;;;231.00;2252.80;;;;;;5131184;28;20027;-76
2022/11/18 04:04:35;;;;;;;65.15;42.22;;;230.90;2252.80;;;;;;5131132;28;20053;-76
2022/11/18 04:07:04;;;;;;;73.80;50.92;;;230.90;2252.80;;;;;;5131012;28;20126;-82
2022/11/18 04:09:35;;;;;;;74.80;50.83;;;230.90;2252.80;;;;;;5145812;27;20026;-73
2022/11/18 04:12:10;;;;;;;67.13;45.65;;;230.90;2252.80;;;;;;5151230;27;20034;-82
2022/11/18 04:14:41;;;;;;;71.30;48.25;;;230.90;2252.80;;;;;;5151567;27;20018;-80
2022/11/18 04:17:18;;;;;;;66.18;44.75;;;230.90;2252.80;;;;;;5152021;27;20033;-77
2022/11/18 04:19:44;;;;;;;69.47;44.35;;;230.90;2252.80;;;;;;5155516;27;20383;-74
2022/11/18 04:22:10;;;;;;;120.78;68.65;;;231.00;2252.80;;;;;;5155467;27;20019;-76
2022/11/18 04:24:36;;;;;;;72.18;43.88;;;231.10;2252.80;;;;;;5155693;27;20037;-77
2022/11/18 04:27:03;;;;;;;59.55;40.30;;;231.10;2252.80;;;;;;5155212;27;20027;-74
2022/11/18 04:29:33;;;;;;;36.30;30.40;;;231.20;2252.80;;;;;;5155395;27;20067;-74
2022/11/18 04:31:59;;;;;;;38.72;29.02;;;231.30;2252.80;;;;;;5155622;27;20094;-76
2022/11/18 04:34:25;;;;;;;32.88;23.70;;;231.30;2252.80;;;;;;5155602;27;20097;-76
2022/11/18 04:36:51;;;;;;;33.50;22.23;;;256.00;2252.80;;;;;;5155266;27;20529;-70
2022/11/18 04:39:19;;;;;;;42.17;25.63;;;256.20;2252.80;;;;;;5155432;27;20023;-83
2022/11/18 04:41:57;;;;;;;28.58;18.48;;;256.40;2252.80;;;;;;5155736;27;20127;-78
2022/11/18 04:44:24;;;;;;;47.97;31.45;;;256.70;2252.80;;;;;;5155342;27;20078;-84
2022/11/18 04:46:50;;;;;;;28.13;19.48;;;256.90;2252.80;;;;;;5155448;27;20042;-70
2022/11/18 04:49:16;;;;;;;18.50;15.23;;;281.70;2278.40;;;;;;5154623;27;20023;-75
2022/11/18 04:51:43;;;;;;;74.68;50.17;;;281.80;2278.40;;;;;;5154964;27;20022;-69
2022/11/18 04:54:09;;;;;;;49.22;28.55;;;256.70;2252.80;;;;;;5154804;27;20064;-70
2022/11/18 04:56:35;;;;;;;33.75;23.02;;;256.70;2252.80;;;;;;5155161;27;20023;-70
2022/11/18 04:59:03;;;;;;;26.77;19.20;;;256.90;2252.80;;;;;;5154899;27;20103;-70
2022/11/18 05:01:29;;;;;;;29.00;21.08;;;281.60;2278.40;;;;;;5155202;27;20022;-83
2022/11/18 05:03:55;;;;;;;28.30;18.35;;;281.60;2278.40;;;;;;5155117;27;20023;-83
2022/11/18 05:06:22;;;;;;;43.67;32.47;;;281.60;2278.40;;;;;;5154835;27;20818;-82
2022/11/18 05:08:47;;;;;;;51.67;35.17;;;281.60;2278.40;;;;;;5154909;27;20106;-75
2022/11/18 05:13:58;;;;;;;95.35;65.93;;;256.50;2252.80;;;;;;5158324;27;20018;-80
2022/11/18 05:16:24;;;;;;;125.60;85.68;;;256.30;2252.80;;;;;;5161795;27;20043;-69
2022/11/18 05:18:50;;;;;;;156.90;107.25;;;256.20;2252.80;;;;;;5139283;27;20114;-70
2022/11/18 05:21:16;;;;;;;181.38;121.80;;;231.30;2252.80;;;;;;5160005;27;20031;-69
2022/11/18 05:23:42;;;;;;;196.35;126.75;;;231.30;2252.80;;;;;;5158290;27;20019;-78
2022/11/18 05:29:29;;;;;;;168.98;115.00;;;231.20;2252.80;;;;;;5156759;27;20079;-70
2022/11/18 05:31:55;;;;;;;152.80;100.38;;;231.30;2252.80;;;;;;5138609;27;20035;-82
2022/11/18 05:34:21;;;;;;;124.22;83.50;;;231.30;2252.80;;;;;;5157869;27;20396;-83
2022/11/18 05:36:47;;;;;;;131.55;89.07;;;231.30;2252.80;;;;;;5157153;27;20041;-74
2022/11/18 05:45:42;;;;;;;143.60;95.80;;;231.30;2252.80;;;;;;5152109;27;20064;-78
2022/11/18 05:48:08;;;;;;;99.40;68.80;;;231.30;2252.80;;;;;;5157194;27;20027;-70
2022/11/18 05:50:37;;;;;;;91.78;62.33;;;231.20;2252.80;;;;;;5157076;27;20049;-70
2022/11/18 05:53:04;;;;;;;97.70;65.28;;;231.10;2252.80;;;;;;5155566;27;20425;-70
2022/11/18 05:55:45;;;;;;;97.90;68.63;;;231.10;2252.80;;;;;;5153883;27;20073;-70
2022/11/18 05:58:11;;;;;;;93.18;64.50;;;231.10;2252.80;;;;;;5153641;27;20479;-70
2022/11/18 06:00:36;;;;;;;159.15;145.13;;;231.20;2252.80;;;;;;5153900;27;20079;-70
2022/11/18 06:03:06;;;;;;;115.85;81.93;;;231.30;2252.80;;;;;;5153532;27;20029;-81
2022/11/18 06:05:32;;;;;;;84.18;57.60;;;256.00;2252.80;;;;;;5153773;27;20113;-75
2022/11/18 06:07:58;;;;;;;94.40;57.72;;;256.20;2252.80;;;;;;5153926;27;20110;-77
2022/11/18 06:10:28;;;;;;;71.22;50.10;;;256.30;2252.80;;;;;;5153558;27;20467;-80
2022/11/18 06:12:58;;;;;;;76.93;57.10;;;256.50;2252.80;;;;;;5153357;27;20096;-75
2022/11/18 06:15:29;;;;;;;54.17;38.38;;;256.60;2252.80;;;;;;5153456;27;20011;-74
2022/11/18 06:17:55;;;;;;;68.60;46.55;;;256.70;2252.80;;;;;;5153778;27;20375;-80
2022/11/18 06:20:21;;;;;;;63.75;46.00;;;256.90;2252.80;;;;;;5153234;27;20019;-76
2022/11/18 06:22:54;;;;;;;57.88;44.08;;;281.70;2278.40;;;;;;5153401;27;20026;-77
2022/11/18 06:25:21;;;;;;;52.47;37.28;;;281.70;2278.40;;;;;;5153008;27;20042;-76
2022/11/18 06:27:48;;;;;;;55.50;39.85;;;281.60;2278.40;;;;;;5153229;27;20035;-75
2022/11/18 06:30:14;;;;;;;63.17;47.05;;;281.60;2278.40;;;;;;5153131;27;20018;-76
2022/11/18 06:32:40;;;;;;;100.28;76.40;;;281.70;2278.40;;;;;;5152738;27;20444;-84
2022/11/18 06:35:06;;;;;;;155.98;121.15;;;256.90;2252.80;;;;;;5153161;27;20144;-70
2022/11/18 06:37:32;;;;;;;176.45;127.22;;;256.90;2252.80;;;;;;5152576;27;20022;-70
2022/11/18 06:39:58;;;;;;;125.68;96.55;;;281.60;2278.40;;;;;;5152882;27;20033;-69
2022/11/18 06:45:10;;;;;;;83.90;58.10;;;281.70;2278.40;;;;;;5152627;27;20062;-69
2022/11/18 06:47:35;;;;;;;80.85;66.65;;;281.90;2278.40;;;;;;5152637;27;20035;-75
2022/11/18 06:50:01;;;;;;;96.15;73.32;;;282.00;2278.40;;;;;;5152928;27;20025;-76
2022/11/18 06:52:27;;;;;;;95.38;67.20;;;281.90;2278.40;;;;;;5152747;27;20066;-72
2022/11/18 06:54:52;;;;;;;52.63;40.35;;;282.10;2278.40;;;;;;5152694;27;20019;-69
2022/11/18 06:57:18;;;;;;;69.30;54.75;;;282.20;2278.40;;;;;;5152839;27;20046;-74
2022/11/18 06:59:44;;;;;;;74.18;48.75;;;282.50;2278.40;;;;;;5152373;27;20019;-70
2022/11/18 07:02:09;;;;;;;35.97;25.52;;;307.30;2304.00;;;;;;5152467;27;20023;-77
2022/11/18 07:04:38;;;;;;;53.47;37.13;;;307.40;2304.00;;;;;;5152662;27;20050;-71
2022/11/18 07:07:05;;;;;;;89.45;58.78;;;307.50;2304.00;;;;;;5152633;27;20039;-74
2022/11/18 07:09:30;;;;;;;136.32;88.22;;;307.70;2304.00;;;;;;5152313;27;20018;-75
2022/11/18 07:11:56;;;;;;;108.95;77.63;;;308.10;2304.00;;;;;;5152328;27;20106;-80
2022/11/18 07:14:22;;;;;;;175.23;125.25;;;308.10;2304.00;;;;;;5152092;27;20071;-76
2022/11/18 07:16:47;;;;;;;188.15;136.75;;;332.80;2329.60;;;;;;5152536;27;20400;-78
2022/11/18 07:19:13;;;;;;;236.20;161.60;;;308.10;2304.00;;;;;;5152186;27;20301;-76
2022/11/18 07:21:39;;;;;;;187.38;131.98;;;307.80;2304.00;;;;;;5152242;27;20023;-72
2022/11/18 07:24:07;;;;;;;182.82;119.97;;;307.60;2304.00;;;;;;5152287;27;20025;-79
2022/11/18 07:26:33;;;;;;;171.02;117.18;;;307.50;2304.00;;;;;;5151565;27;20030;-76
2022/11/18 07:28:59;;;;;;;238.73;162.05;;;307.60;2304.00;;;;;;5151858;27;20022;-73
2022/11/18 07:31:25;;;;;;;198.20;135.32;;;307.70;2304.00;;;;;;5152025;27;20356;-71
2022/11/18 07:33:54;;;;;;;155.07;100.80;;;307.50;2304.00;;;;;;5151710;27;20015;-71
2022/11/18 07:36:22;;;;;;;109.60;74.45;;;307.50;2304.00;;;;;;5151728;27;20090;-57
2022/11/18 07:38:49;;;;;;;56.53;39.63;;;307.60;2304.00;;;;;;5151961;27;20031;-58
2022/11/18 07:41:14;;;;;;;121.63;86.40;;;307.90;2304.00;;;;;;5151633;27;20379;-58
2022/11/18 07:43:41;;;;;;;195.50;131.55;;;307.90;2304.00;;;;;;5151839;27;20022;-57
2022/11/18 07:46:09;;;;;;;132.90;98.28;;;307.30;2304.00;;;;;;5151578;27;20038;-58
2022/11/18 07:48:35;;;;;;;127.68;89.78;;;307.20;2304.00;;;;;;5145138;27;20054;-63
2022/11/18 07:51:01;;;;;;;132.25;91.47;;;307.30;2304.00;;;;;;5130855;28;20378;-56
2022/11/18 07:53:29;;;;;;;136.70;92.40;;;307.60;2304.00;;;;;;5136519;27;20055;-58
2022/11/18 07:55:55;;;;;;;110.05;80.07;;;307.70;2304.00;;;;;;5138037;27;20353;-63
2022/11/18 07:58:21;;;;;;;105.05;78.53;;;307.80;2304.00;;;;;;5137968;27;20034;-58
2022/11/18 08:00:47;;;;;;;114.03;79.20;;;308.00;2304.00;;;;;;5138192;27;20102;-63
2022/11/18 08:03:12;;;;;;;107.47;79.28;;;308.10;2304.00;;;;;;5137754;27;20464;-57
2022/11/18 08:05:38;;;;;;;108.45;81.35;;;332.90;2329.60;;;;;;5138155;27;20491;-60
2022/11/18 08:08:04;;;;;;;113.28;77.90;;;332.80;2329.60;;;;;;5137287;27;20499;-61
2022/11/18 08:10:30;;;;;;;119.65;87.47;;;332.80;2329.60;;;;;;5137539;27;20058;-58
2022/11/18 08:12:56;;;;;;;115.97;91.68;;;332.80;2329.60;;;;;;5137796;27;20379;-64
2022/11/18 08:15:22;;;;;;;153.75;109.25;;;308.10;2304.00;;;;;;5137860;27;20030;-61
2022/11/18 08:17:48;;;;;;;124.65;81.95;;;308.10;2304.00;;;;;;5137732;27;20019;-56
2022/11/18 08:20:14;;;;;;;138.93;91.22;;;332.90;2329.60;;;;;;5137365;27;20384;-58
2022/11/18 08:22:40;;;;;;;99.43;71.53;;;332.80;2329.60;;;;;;5137619;27;20026;-57
2022/11/18 08:25:06;;;;;;;65.25;48.30;;;308.10;2304.00;;;;;;5137635;27;20031;-57
2022/11/18 08:27:32;;;;;;;58.30;44.15;;;308.10;2304.00;;;;;;5137471;27;20039;-56
2022/11/18 08:29:57;;;;;;;68.57;45.65;;;308.10;2304.00;;;;;;5137966;27;20135;-62
2022/11/18 08:32:23;;;;;;;56.08;44.10;;;308.10;2304.00;;;;;;5137489;27;20027;-57
2022/11/18 08:34:50;;;;;;;59.88;45.55;;;308.10;2304.00;;;;;;5137713;27;20023;-61
2022/11/18 08:37:16;;;;;;;68.40;48.65;;;308.10;2304.00;;;;;;5137837;27;20419;-58
2022/11/18 08:39:48;;;;;;;76.70;53.80;;;308.10;2304.00;;;;;;5137156;27;20102;-55
2022/11/18 12:40:47;;;;;;;143.80;98.80;;;384.60;2329.60;;;;;;5051856;23;1349155;-64
2022/11/18 12:46:35;;;;;;;156.73;115.68;;;384.40;2329.60;;;;;;5052802;28;20036;-62
2022/11/18 12:49:20;;;;;;;111.00;87.95;;;384.40;2329.60;;;;;;5041774;28;20056;-63
2022/11/18 12:51:46;;;;;;;63.83;45.25;;;384.40;2329.60;;;;;;5052410;28;20029;-61
2022/11/18 12:54:33;;;;;;;90.28;64.38;;;384.40;2329.60;;;;;;5052330;28;20401;-56
2022/11/18 12:57:12;;;;;;;250.50;170.15;;;384.40;2329.60;;;;;;5052531;28;20021;-63
2022/11/18 12:59:37;;;;;;;358.17;227.00;;;384.60;2329.60;;;;;;5052523;28;20032;-62
2022/11/18 13:02:09;;;;;;;261.63;174.52;;;384.60;2329.60;;;;;;5052047;28;20052;-62
2022/11/18 13:04:35;;;;;;;149.00;104.70;;;384.60;2329.60;;;;;;5052277;28;20143;-62
2022/11/18 13:07:02;;;;;;;282.33;166.20;;;384.60;2329.60;;;;;;5052283;28;20060;-63
2022/11/18 13:09:32;;;;;;;172.85;125.00;;;384.60;2329.60;;;;;;5052349;28;20064;-58
2022/11/18 13:12:02;;;;;;;137.93;103.80;;;384.60;2329.60;;;;;;5052186;28;20036;-63
2022/11/18 13:17:54;;;;;;;108.47;74.82;;;384.60;2329.60;;;;;;5052570;28;20023;-62
2022/11/18 13:20:32;;;;;;;112.00;79.05;;;384.90;2329.60;;;;;;5052375;28;20087;-63
2022/11/18 13:25:45;;;;;;;326.05;198.00;;;384.60;2329.60;;;;;;5051920;28;20386;-59
2022/11/18 13:28:53;;;;;;;345.85;205.43;;;384.60;2329.60;;;;;;5051675;28;20475;-58
2022/11/18 13:31:48;;;;;;;333.65;184.13;;;384.40;2329.60;;;;;;5052040;28;20021;-58
2022/11/18 13:34:26;;;;;;;178.77;107.68;;;384.40;2329.60;;;;;;5062060;28;20016;-61
2022/11/18 13:36:54;;;;;;;159.25;104.00;;;384.30;2329.60;;;;;;5035949;28;20094;-58
2022/11/18 13:39:22;;;;;;;145.30;101.45;;;384.10;2329.60;;;;;;5042257;28;20040;-62
2022/11/18 13:41:57;;;;;;;326.90;207.68;;;384.20;2329.60;;;;;;5037969;28;20407;-62
2022/11/18 13:44:26;;;;;;;144.88;102.85;;;384.20;2329.60;;;;;;5042557;28;20045;-58
2022/11/18 13:47:38;;;;;;;196.27;160.88;;;384.30;2329.60;;;;;;5040763;28;20022;-57
2022/11/18 13:50:09;;;;;;;248.45;169.10;;;384.20;2329.60;;;;;;4957807;28;20247;-62
2022/11/18 13:52:39;;;;;;;199.57;130.98;;;384.10;2329.60;;;;;;4960193;28;20027;-60
2022/11/18 13:55:18;;;;;;;180.32;118.70;;;384.30;2329.60;;;;;;4969213;28;20090;-56
2022/11/18 13:57:50;;;;;;;195.25;137.98;;;384.40;2329.60;;;;;;4971076;28;20373;-61
2022/11/18 14:00:24;;;;;;;157.02;110.30;;;384.50;2329.60;;;;;;4970631;28;20397;-59
2022/11/18 14:03:04;;;;;;;98.82;79.78;;;384.60;2329.60;;;;;;4970745;28;20062;-65
2022/11/18 14:05:30;;;;;;;53.92;48.30;;;384.80;2329.60;;;;;;4970249;28;20113;-55
2022/11/18 14:08:19;;;;;;;59.60;53.63;;;409.60;2355.20;;;;;;4966959;28;20126;-56
2022/11/18 14:10:44;;;;;;;35.83;30.42;;;409.90;2355.20;;;;;;4968495;28;20437;-57
2022/11/18 14:13:23;;;;;;;83.75;64.47;;;410.00;2355.20;;;;;;4968483;28;20043;-59
2022/11/18 14:15:49;;;;;;;24.27;19.15;;;410.30;2355.20;;;;;;4968455;28;20080;-62
2022/11/18 14:18:40;;;;;;;35.35;26.38;;;410.40;2355.20;;;;;;4968364;28;20141;-62
2022/11/18 14:21:06;;;;;;;25.75;21.33;;;410.50;2355.20;;;;;;4967135;28;20156;-62
2022/11/18 14:23:36;;;;;;;26.95;21.65;;;410.50;2355.20;;;;;;4968391;28;20040;-63
2022/11/18 14:26:05;;;;;;;9.82;5.60;;;410.50;2355.20;;;;;;4992207;28;20040;-57
2022/11/18 14:28:35;;;;;;;20.55;15.73;;;435.30;2355.20;;;;;;5049309;28;20115;-55
2022/11/18 14:31:26;;;;;;;7.97;6.07;;;435.30;2355.20;;;;;;5049326;28;20036;-60
2022/11/18 14:34:13;;;;;;;15.25;9.88;;;435.40;2355.20;;;;;;4967512;28;20524;-57
2022/11/18 14:36:39;;;;;;;5.38;3.28;;;435.50;2355.20;;;;;;4968057;28;20053;-58
2022/11/18 14:39:19;;;;;;;9.50;5.88;;;435.80;2355.20;;;;;;4967918;28;20389;-64
2022/11/18 14:41:48;;;;;;;18.75;13.00;;;435.90;2355.20;;;;;;4955831;28;20059;-59
2022/11/18 14:44:14;;;;;;;18.70;14.00;;;435.30;2355.20;;;;;;4948458;29;20043;-64
2022/11/18 14:46:42;;;;;;;29.77;22.50;;;410.30;2355.20;;;;;;4948295;29;20153;-61
2022/11/18 14:49:14;;;;;;;21.10;16.98;;;409.70;2355.20;;;;;;4948523;29;20523;-60
2022/11/18 14:51:40;;;;;;;34.58;23.70;;;384.90;2329.60;;;;;;4948677;29;20043;-60
2022/11/18 14:54:05;;;;;;;23.45;18.33;;;384.60;2329.60;;;;;;4948429;29;20042;-64
2022/11/18 14:56:32;;;;;;;27.20;19.50;;;384.40;2329.60;;;;;;4948592;29;20031;-57
2022/11/18 14:58:58;;;;;;;20.55;18.30;;;384.20;2329.60;;;;;;4948553;29;20069;-58
2022/11/18 15:01:26;;;;;;;29.10;22.25;;;359.30;2329.60;;;;;;4947973;29;20027;-57
2022/11/18 15:03:53;;;;;;;27.20;23.13;;;359.00;2329.60;;;;;;4948258;28;20039;-61
2022/11/18 15:06:21;;;;;;;26.40;22.70;;;358.90;2329.60;;;;;;4948535;29;20466;-64
2022/11/18 15:08:48;;;;;;;38.10;31.00;;;358.60;2329.60;;;;;;4948063;29;20041;-69
2022/11/18 15:11:15;;;;;;;37.22;27.42;;;358.60;2329.60;;;;;;4988449;28;20092;-69
2022/11/18 15:16:16;;;;;;;32.75;26.77;;;333.70;2329.60;;;;;;4957516;23;20054;-59
2022/11/18 15:18:43;;;;;;;40.75;36.42;;;358.40;2329.60;;;;;;5026427;28;20128;-60
2022/11/18 15:21:09;;;;;;;36.05;30.23;;;333.70;2329.60;;;;;;5028444;28;20037;-59
2022/11/18 15:23:36;;;;;;;31.58;25.30;;;333.60;2329.60;;;;;;5028728;28;20028;-60
2022/11/18 15:26:08;;;;;;;31.38;26.05;;;333.60;2329.60;;;;;;5028585;28;20025;-60
2022/11/18 15:28:35;;;;;;;33.60;27.55;;;333.50;2329.60;;;;;;5028135;28;20069;-60
2022/11/18 15:31:01;;;;;;;31.65;27.33;;;333.40;2201.60;;;;;;5028574;28;20038;-59
2022/11/18 15:33:27;;;;;;;36.00;30.52;;;333.40;1945.60;;;;;;5028480;28;20095;-60
2022/11/18 15:35:52;;;;;;;35.45;31.67;;;333.40;2329.60;;;;;;5028426;28;20021;-65
2022/11/18 15:38:18;;;;;;;35.78;30.08;;;333.40;2329.60;;;;;;5028153;28;20116;-59
2022/11/18 15:40:44;;;;;;;31.30;27.05;;;333.40;2329.60;;;;;;5025714;28;20017;-61
2022/11/18 15:43:09;;;;;;;35.53;29.80;;;333.40;2329.60;;;;;;5028044;28;20029;-59
2022/11/18 15:45:35;;;;;;;40.95;33.97;;;333.40;2124.80;;;;;;5027842;28;20050;-61
2022/11/18 15:48:01;;;;;;;35.20;26.70;;;333.30;2329.60;;;;;;5028573;28;20048;-60
2022/11/18 15:50:28;;;;;;;26.27;23.48;;;333.30;2329.60;;;;;;5026813;28;20108;-61
2022/11/18 15:52:54;;;;;;;29.77;23.98;;;333.20;2329.60;;;;;;5023160;28;20018;-59
2022/11/18 15:55:20;;;;;;;30.10;26.92;;;333.20;2329.60;;;;;;5023238;28;20021;-60
2022/11/18 15:57:46;;;;;;;38.42;34.97;;;333.30;2329.60;;;;;;5023715;28;20391;-61
2022/11/18 16:00:12;;;;;;;28.42;24.02;;;333.30;2329.60;;;;;;5026810;28;20151;-59
2022/11/18 16:02:38;;;;;;;34.15;31.25;;;333.30;2329.60;;;;;;5027917;28;20037;-59
2022/11/18 16:05:04;;;;;;;36.10;32.75;;;333.30;2329.60;;;;;;5028360;28;20026;-60
2022/11/18 16:07:29;;;;;;;27.15;24.27;;;333.30;2329.60;;;;;;5027590;28;20030;-62
2022/11/18 16:12:45;;;;;;;28.85;26.05;;;333.30;2329.60;;;;;;5028483;28;20045;-61
2022/11/18 16:17:57;;;;;;;26.10;22.50;;;333.30;2329.60;;;;;;5031979;28;20044;-60
2022/11/18 16:20:23;;;;;;;56.95;37.30;;;333.20;2329.60;;;;;;5031486;28;20021;-60
2022/11/18 16:22:50;;;;;;;79.90;50.83;;;333.20;2329.60;;;;;;5031063;28;20475;-60
2022/11/18 16:25:17;;;;;;;123.25;68.30;;;333.20;2329.60;;;;;;5031830;28;20061;-61
2022/11/18 16:27:42;;;;;;;140.95;78.40;;;333.20;2329.60;;;;;;5031838;28;20033;-62
2022/11/18 16:31:38;;;;;;;101.82;65.97;;;333.20;2329.60;;;;;;5031542;28;20373;-60
2022/11/18 16:32:54;;;;;;;82.97;52.58;;;333.10;2329.60;;;;;;5030901;28;20037;-60
2022/11/18 16:35:20;;;;;;;45.58;37.30;;;333.20;2329.60;;;;;;5031484;28;20384;-60
2022/11/18 16:37:46;;;;;;;28.55;21.83;;;333.30;2329.60;;;;;;5031275;28;20037;-60
2022/11/18 16:40:11;;;;;;;25.25;21.45;;;333.30;2329.60;;;;;;5031685;28;20036;-63
2022/11/18 16:42:37;;;;;;;23.77;20.95;;;333.20;2329.60;;;;;;5031459;28;20523;-60
2022/11/18 16:45:03;;;;;;;227.18;118.05;;;333.20;2329.60;;;;;;5031342;28;20471;-61